Valparaiso, Nebraska
Current Conditions -  °F | °C
As of 1:35 PM on Friday 31 Oct 2014 (Local Time) from KAHQ Reporting Station
Clear Clear  
Wind Chill: 36°   Ceiling: Unl
Heat Index: 41°   Visibility: 10mi
Dew Point: 15°   Wind: 7mph
Humidity: 35%   Direction: 360°N
Pressure: 30.54"   Gusts: NA
Location:  41.08°N, 96.83°W
Report Text: KAHQ 311835Z AUTO 36006KT 10SM CLR 05/M09 A3054 RMK AO2 T00491094
Loading
Personal Weather Stations






























Interactive Weather Map
Tropical Storm Tracking
New forecast layout! Learn more

10-Day Weather Forecast

Advertisements
Track Severe Weather on mobile